Terminal Aerodrome Forecast
Issued by NWS Louisville, KY

Home | Current Version | Previous Version | Graphics & Text | Print | Product List | Glossary On
Versions: 1 2 3 4 5 6 7 8 9 10 11 12 13 14
000
FTUS43 KLMK 260817 AAA
TAFSDF
TAF AMD
KSDF 260817Z 2608/2712 18006KT P6SM BKN040
     FM261400 19011KT P6SM BKN050
     FM262000 21012KT P6SM VCTS SCT050CB
     FM270200 16005KT P6SM SCT150=

USA.gov is the U.S. government's official web portal to all federal, state and local government web resources and services.